• Join FlightAware (Why Join?)
  • Login
  • US Flag 
12:38AM EST


 

Airport Tracker/Info


-or-


 

Live Flight TrackerFlight Track Log ✈ SWA1035 ✈ 30-Apr-2013 ✈ KMCI - KABQ

Flight Track Log - Related Links

Times and Time Zones

All times are in EDT time to prevent confusion due to time zone crossing. See the SWA1035 flight status page for this flight to view local times or setup timezone preferences in your user account.

Time Position Orientation Groundspeed Altitude Reporting Facility
EDT Latitude Longitude Course Direction KTS MPH feet Rate Location/Type
02:18PM 39.2556 -94.8119 247° West 226 260 4,300  Level Kansas City Center
02:19PM 39.2489 -94.9175 265° West 262 302 7,800 3,240 Climbing Kansas City Center
02:20PM 39.2417 -95.0119 264° West 276 318 11,100 3,000 Climbing Kansas City Center
02:21PM 39.2311 -95.1453 264° West 338 389 14,100 2,820 Climbing Kansas City Center
02:22PM 39.2200 -95.2819 264° West 354 407 17,000 3,300 Climbing Kansas City Center
02:23PM 39.2100 -95.4144 264° West 368 423 21,000 2,880 Climbing Kansas City Center
02:24PM 39.1911 -95.5489 260° West 375 432 23,000 960 Climbing Kansas City Center
02:25PM 39.1778 -95.6825 263° West 392 451 23,000 780 Level Kansas City Center
02:26PM 39.1594 -95.8381 261° West 395 455 24,700 1,740 Climbing Kansas City Center
02:27PM 39.1419 -95.9764 261° West 407 468 26,600 1,920 Climbing Kansas City Center
02:28PM 39.1206 -96.1419 261° West 420 483 28,700 1,740 Climbing Kansas City Center
02:29PM 39.0847 -96.2839 252° West 433 498 30,300 1,560 Climbing Kansas City Center
02:30PM 39.0453 -96.4478 253° West 430 495 32,000 780 Climbing Kansas City Center
02:31PM 39.0106 -96.5864 252° West 426 490 32,000  Level Kansas City Center
02:32PM 38.9769 -96.7214 252° West 430 495 32,000  Level Kansas City Center
02:34PM 38.9364 -96.8975 254° West 430 495 32,000 240 Level Kansas City Center
02:35PM 38.9011 -97.0419 253° West 426 490 32,500 1,200 Climbing Kansas City Center
02:36PM 38.8650 -97.1861 252° West 424 488 34,500 1,620 Climbing Kansas City Center
02:37PM 38.8297 -97.3278 252° West 420 483 35,900 1,140 Climbing Kansas City Center
02:38PM 38.7944 -97.4697 252° West 421 484 36,900 480 Climbing Kansas City Center
02:39PM 38.7564 -97.6217 252° West 418 481 37,000  Climbing Kansas City Center
02:40PM 38.7161 -97.7794 252° West 416 479 37,000  Level Kansas City Center
02:41PM 38.6797 -97.9211 252° West 421 484 37,000  Level Kansas City Center
02:42PM 38.6431 -98.0608 251° West 417 480 37,000  Level Kansas City Center
02:43PM 38.6081 -98.2019 252° West 419 482 37,000  Level Kansas City Center
02:44PM 38.5711 -98.3425 251° West 419 482 37,000  Level Kansas City Center
02:45PM 38.5267 -98.5108 251° West 418 481 37,000  Level Kansas City Center
02:46PM 38.4894 -98.6517 251° West 420 483 37,000  Level Kansas City Center
02:47PM 38.4525 -98.7928 252° West 421 484 37,000  Level Kansas City Center
02:48PM 38.4153 -98.9339 251° West 421 484 37,000  Level Kansas City Center
02:49PM 38.3772 -99.0736 251° West 421 484 37,100 480 Climbing Kansas City Center
02:50PM 38.3392 -99.2161 251° West 424 488 38,000 420 Climbing Kansas City Center
02:51PM 38.2925 -99.3878 251° West 427 491 38,000  Level Kansas City Center
02:52PM 38.2506 -99.5397 251° West 423 487 38,000  Level Kansas City Center
02:53PM 38.2136 -99.6753 251° West 424 488 38,000  Level Kansas City Center
02:54PM 38.1769 -99.8111 251° West 425 489 38,000  Level Kansas City Center
02:55PM 38.1322 -99.9689 250° West 425 489 38,000  Level Kansas City Center
02:56PM 38.0950 -100.1056 251° West 427 491 38,000  Level Kansas City Center
02:57PM 38.0511 -100.2625 250° West 425 489 38,000  Level Kansas City Center
02:58PM 38.0128 -100.3972 250° West 425 489 38,000  Level Kansas City Center
02:59PM 37.9681 -100.5539 250° West 424 488 38,000  Level Kansas City Center
03:00PM 37.9242 -100.7083 250° West 422 486 38,000  Level Kansas City Center
03:01PM 37.8722 -100.8339 242° Southwest 423 487 38,000  Level Kansas City Center
03:03PM 37.8094 -100.9775 241° Southwest 424 488 38,000  Level Kansas City Center
03:04PM 37.7517 -101.1083 241° Southwest 425 489 38,000  Level Kansas City Center
03:05PM 37.6917 -101.2453 241° Southwest 426 490 38,000  Level Kansas City Center
03:06PM 37.6369 -101.3714 241° Southwest 428 493 38,000  Level Kansas City Center
03:07PM 37.5719 -101.5172 241° Southwest 428 493 38,000  Level Kansas City Center
03:08PM 37.5158 -101.6422 241° Southwest 430 495 38,000  Level Kansas City Center
03:09PM 37.4508 -101.7886 241° Southwest 430 495 38,000  Level Kansas City Center
03:10PM 37.3944 -101.9153 241° Southwest 432 497 38,000  Level Kansas City Center
03:11PM 37.3278 -102.0617 240° Southwest 432 497 38,000  Level Kansas City Center
03:12PM 37.2722 -102.1917 242° Southwest 429 494 38,000  Level Albuquerque Center
03:13PM 37.2167 -102.3167 241° Southwest 428 493 38,000  Level Albuquerque Center
03:14PM 37.1578 -102.4419 239° Southwest 433 498 38,000  Level Albuquerque Center
03:15PM 37.0931 -102.5867 241° Southwest 427 491 38,000  Level Albuquerque Center
03:16PM 37.0364 -102.7108 240° Southwest 428 493 38,000  Level Albuquerque Center
03:17PM 36.9683 -102.8550 239° Southwest 429 494 38,000  Level Albuquerque Center
03:18PM 36.9108 -102.9808 240° Southwest 432 497 38,000  Level Albuquerque Center
03:19PM 36.8442 -103.1244 240° Southwest 429 494 38,000  Level Albuquerque Center
03:20PM 36.7867 -103.2478 240° Southwest 428 493 38,000  Level Albuquerque Center
03:21PM 36.7292 -103.3703 240° Southwest 426 490 38,000  Level Albuquerque Center
03:22PM 36.6622 -103.5153 240° Southwest 429 494 38,000  Level Albuquerque Center
03:23PM 36.5978 -103.6517 240° Southwest 429 494 38,000  Level Albuquerque Center
03:24PM 36.5364 -103.7817 240° Southwest 431 496 38,000  Level Albuquerque Center
03:25PM 36.4747 -103.9100 239° Southwest 430 495 38,000  Level Albuquerque Center
03:26PM 36.4131 -104.0406 240° Southwest 433 498 38,000  Level Albuquerque Center
03:27PM 36.3519 -104.1667 239° Southwest 428 493 38,000  Level Albuquerque Center
03:28PM 36.2894 -104.2933 239° Southwest 429 494 38,000  Level Albuquerque Center
03:29PM 36.2278 -104.4211 239° Southwest 430 495 38,000  Level Albuquerque Center
03:30PM 36.1661 -104.5494 239° Southwest 431 496 38,000  Level Albuquerque Center
03:31PM 36.0950 -104.6947 239° Southwest 424 488 38,000  Level Albuquerque Center
03:32PM 36.0333 -104.8228 239° Southwest 430 495 38,000 -180 Level Albuquerque Center
03:33PM 35.9692 -104.9522 244° Southwest 437 503 37,700 -600 Descending Albuquerque Center
03:34PM 35.9531 -104.9507 244° Southwest  Level FlightAware Approximate
03:34PM 35.9061 -105.0806 239° Southwest 436 502 36,800  Level Albuquerque Center
03:35PM 35.8431 -105.2081 239° Southwest 434 499 35,800 -1,020 Descending Albuquerque Center
03:36PM 35.7781 -105.3375 238° Southwest 438 504 34,800 -1,320 Descending Albuquerque Center
03:37PM 35.7147 -105.4664 239° Southwest 439 505 33,100 -1,920 Descending Albuquerque Center
03:38PM 35.6931 -105.5994 259° West 432 497 30,900 -2,280 Descending Albuquerque Center
03:40PM 35.6747 -105.7608 262° West 405 466 28,400 -2,280 Descending Albuquerque Center
03:41PM 35.6619 -105.8925 263° West 395 455 26,300 -1,980 Descending Albuquerque Center
03:42PM 35.6508 -106.0206 264° West 381 438 24,400 -1,860 Descending Albuquerque Center
03:43PM 35.6383 -106.1436 263° West 371 427 22,500 -1,860 Descending Albuquerque Center
03:44PM 35.6267 -106.2664 263° West 365 420 20,600 -1,980 Descending Albuquerque Center
03:45PM 35.6131 -106.3819 262° West 351 404 18,500 -2,280 Descending Albuquerque Center
03:45PM 35.5711 -106.4603 237° Southwest 331 381 16,700 -2,220 Descending Albuquerque Center
03:46PM 35.5633 -106.4781 242° Southwest 338 389 16,300 -1,920 Descending Albuquerque Center
03:46PM 35.5317 -106.5408 238° Southwest 327 376 15,200 -2,040 Descending Albuquerque Center
03:47PM 35.5081 -106.5947 242° Southwest 325 374 14,200 -1,320 Descending Albuquerque Center
03:47PM 35.4836 -106.6317 231° Southwest 319 367 13,900 -1,200 Descending Albuquerque Center
03:48PM 35.4428 -106.6567 207° Southwest 319 367 13,000 -1,500 Descending Albuquerque Center
03:48PM 35.4064 -106.6778 205° Southwest 299 344 12,400 -1,200 Descending Albuquerque Center
03:49PM 35.3697 -106.7003 207° Southwest 296 341 11,800 -1,020 Descending Albuquerque Center
03:49PM 35.3428 -106.7306 223° Southwest 276 318 11,400 -840 Descending Albuquerque Center
03:50PM 35.3175 -106.7658 229° Southwest 274 315 11,000 -900 Descending Albuquerque Center
03:50PM 35.2944 -106.7950 226° Southwest 250 288 10,500 -1,080 Descending Albuquerque Center
03:51PM 35.2711 -106.8275 229° Southwest 254 292 9,900 -1,140 Descending Albuquerque Center
03:51PM 35.2336 -106.8264 179° South 259 298 9,400 -1,020 Descending Albuquerque Center
03:52PM 35.2072 -106.7972 138° Southeast 267 307 8,900 -600 Descending Albuquerque Center
03:52PM 35.1778 -106.7628 136° Southeast 274 315 8,800 -540 Descending Albuquerque Center
03:53PM 35.1525 -106.7306 134° Southeast 271 312 8,400 -840 Descending Albuquerque Center
03:53PM 35.1367 -106.6850 113° Southeast 281 323 8,000 -540 Descending Albuquerque Center
03:54PM 35.1244 -106.6419 109° East 275 316 7,900 -120 Descending Albuquerque Center
03:54PM 35.1097 -106.6036 115° Southeast 249 287 7,900 -120 Level Albuquerque Center
03:55PM 35.1000 -106.5636 107° East 261 300 7,800 -720 Descending Albuquerque Center
03:55PM 35.0864 -106.5319 118° Southeast 211 243 7,200 -1,320 Descending Albuquerque Center
03:56PM 35.0597 -106.5122 149° Southeast 223 257 6,500 -900 Descending Albuquerque Center
03:56PM 35.0467 -106.5239 216° Southwest 169 194 6,300 -780 Descending Albuquerque Center
03:57PM 35.0439 -106.5572 264° West 185 213 5,700 -600 Descending Albuquerque Center
03:58PM 35.0444 -106.6058 271° West 175 201 5,300 -420 Descending Albuquerque Center